Kersey, Colorado
Current Conditions -  °F | °C
As of 8:35 AM on Monday 22 Dec 2014 (Local Time) from KGXY Reporting Station
Clear Clear  
Wind Chill: 21°   Ceiling: Unl
Heat Index: 30°   Visibility: 10mi
Dew Point: 18°   Wind: 12mph
Humidity: 60%   Direction: 10°N
Pressure: 29.72"   Gusts: NA
Location:  40.39°N, 104.56°W
Report Text: KGXY 221535Z AUTO 01010KT 10SM CLR M01/M08 A2972 RMK AO1
Loading
Personal Weather Stations






























Interactive Weather Map New forecast layout! Learn more

10-Day Weather Forecast

Advertisements
Track Severe Weather on mobile